Time;durP1;ratioP1;P1;durP2;ratioP2;P2;SDS_P1;SDS_P2;PMS_P1;PMS_P2;Temp;Humidity;BMP_temperature;BMP_pressure;BME280_temperature;BME280_humidity;BME280_pressure;Samples;Min_cycle;Max_cycle;Signal;HPM_P1;HPM_P2
2023/02/15 00:00:21;;;;;;;26.77;19.60;;;4.10;1.00;;;;;;5035542;28;20502;-64
2023/02/15 00:02:48;;;;;;;35.83;20.00;;;4.00;1.00;;;;;;5035011;28;20739;-65
2023/02/15 00:05:15;;;;;;;35.80;19.70;;;4.00;1.00;;;;;;5035272;28;20558;-65
2023/02/15 00:07:43;;;;;;;29.40;19.90;;;4.00;1.00;;;;;;5035064;28;20770;-65
2023/02/15 00:10:11;;;;;;;30.23;20.43;;;3.90;1.00;;;;;;5034469;28;20523;-65
2023/02/15 00:12:39;;;;;;;29.90;18.80;;;3.80;1.00;;;;;;5035584;28;20777;-65
2023/02/15 00:15:06;;;;;;;27.17;19.13;;;3.90;1.00;;;;;;5034870;28;20561;-65
2023/02/15 00:17:35;;;;;;;29.70;20.27;;;3.90;1.00;;;;;;5034049;28;20491;-65
2023/02/15 00:20:02;;;;;;;28.07;19.37;;;3.90;1.00;;;;;;5034763;28;20833;-65
2023/02/15 00:22:29;;;;;;;29.60;20.77;;;3.80;1.00;;;;;;5034729;28;20490;-65
2023/02/15 00:24:56;;;;;;;31.50;21.50;;;3.80;1.00;;;;;;5034589;28;20785;-65
2023/02/15 00:27:24;;;;;;;29.53;20.40;;;3.80;1.00;;;;;;5035071;28;20540;-65
2023/02/15 00:29:51;;;;;;;31.13;21.67;;;3.70;1.00;;;;;;5035252;28;20761;-65
2023/02/15 00:32:18;;;;;;;31.13;22.27;;;3.80;1.00;;;;;;5034922;28;20463;-65
2023/02/15 00:34:47;;;;;;;32.73;20.93;;;3.90;1.00;;;;;;5034734;28;20561;-65
2023/02/15 00:37:14;;;;;;;33.37;21.03;;;3.90;1.00;;;;;;5034654;28;20455;-65
2023/02/15 00:39:41;;;;;;;34.17;21.93;;;3.90;1.00;;;;;;5034132;28;20566;-65
2023/02/15 00:42:08;;;;;;;30.80;20.97;;;3.80;1.00;;;;;;5035197;28;20557;-65
2023/02/15 00:44:36;;;;;;;29.70;21.83;;;3.80;1.00;;;;;;5034594;28;20959;-65
2023/02/15 00:47:03;;;;;;;32.50;21.53;;;3.70;1.00;;;;;;5034778;28;20507;-65
2023/02/15 00:49:30;;;;;;;30.87;21.80;;;3.70;1.00;;;;;;5034609;28;20491;-65
2023/02/15 00:51:59;;;;;;;34.10;20.47;;;3.70;1.00;;;;;;5034522;28;20485;-65
2023/02/15 00:54:26;;;;;;;29.20;20.40;;;3.60;1.00;;;;;;5034003;28;20601;-65
2023/02/15 00:56:53;;;;;;;27.70;20.27;;;3.70;1.00;;;;;;5034503;28;20490;-65
2023/02/15 00:59:22;;;;;;;34.83;23.17;;;3.70;1.00;;;;;;5034542;28;20550;-65
2023/02/15 01:01:49;;;;;;;34.70;23.80;;;3.80;1.00;;;;;;5034940;28;20470;-65
2023/02/15 01:04:16;;;;;;;31.90;22.60;;;3.80;1.00;;;;;;5034617;28;20473;-65
2023/02/15 01:06:43;;;;;;;33.00;22.17;;;3.80;1.00;;;;;;5034202;28;20462;-65
2023/02/15 01:09:13;;;;;;;32.23;21.90;;;3.80;1.00;;;;;;5034132;28;21006;-65
2023/02/15 01:11:40;;;;;;;31.40;21.30;;;3.80;1.00;;;;;;5033894;28;20520;-65
2023/02/15 01:14:07;;;;;;;33.17;21.17;;;3.70;1.00;;;;;;5034182;28;20496;-65
2023/02/15 01:16:35;;;;;;;32.80;22.13;;;3.80;1.00;;;;;;5033879;28;20558;-65
2023/02/15 01:19:03;;;;;;;35.50;21.50;;;3.80;1.00;;;;;;5034007;28;20459;-65
2023/02/15 01:21:34;;;;;;;31.90;22.47;;;3.70;1.00;;;;;;5034305;28;20466;-65
2023/02/15 01:24:01;;;;;;;33.60;22.70;;;3.60;1.00;;;;;;5034111;28;20489;-65
2023/02/15 01:26:29;;;;;;;29.00;21.13;;;3.60;1.00;;;;;;5033988;28;20549;-65
2023/02/15 01:28:57;;;;;;;29.10;21.53;;;3.60;1.00;;;;;;5033868;28;20527;-65
2023/02/15 01:31:24;;;;;;;31.03;22.00;;;3.50;1.00;;;;;;5037817;28;20463;-65
2023/02/15 01:33:52;;;;;;;34.67;22.80;;;3.50;1.00;;;;;;5037831;28;20550;-65
2023/02/15 01:36:19;;;;;;;36.40;22.87;;;3.40;1.00;;;;;;5037870;28;20562;-65
2023/02/15 01:38:46;;;;;;;35.17;22.70;;;3.50;1.00;;;;;;5036924;28;20868;-65
2023/02/15 01:41:26;;;;;;;30.50;20.00;;;3.50;1.00;;;;;;5037373;28;20471;-65
2023/02/15 01:43:57;;;;;;;29.60;20.77;;;3.50;1.00;;;;;;5037854;28;20462;-65
2023/02/15 01:46:29;;;;;;;32.20;22.57;;;3.40;1.00;;;;;;5037652;28;20554;-65
2023/02/15 01:49:03;;;;;;;32.33;21.37;;;3.40;1.00;;;;;;5037570;28;20945;-65
2023/02/15 01:51:34;;;;;;;31.93;21.97;;;3.40;1.00;;;;;;5037503;28;20467;-65
2023/02/15 01:54:10;;;;;;;32.67;21.30;;;3.30;1.00;;;;;;5036920;28;20862;-65
2023/02/15 01:56:40;;;;;;;32.30;22.67;;;3.20;1.00;;;;;;5037475;28;20498;-65
2023/02/15 01:59:15;;;;;;;30.97;23.13;;;3.20;1.00;;;;;;5037182;28;20549;-64
2023/02/15 02:01:42;;;;;;;37.10;23.47;;;3.10;1.00;;;;;;5036783;28;20466;-65
2023/02/15 02:04:16;;;;;;;34.23;22.27;;;3.20;1.00;;;;;;5037344;28;20470;-65
2023/02/15 02:06:45;;;;;;;34.03;21.87;;;3.20;1.00;;;;;;5036495;28;20506;-65
2023/02/15 02:09:12;;;;;;;36.10;23.33;;;3.10;1.00;;;;;;5036905;28;20497;-65
2023/02/15 02:11:41;;;;;;;31.97;22.17;;;3.00;1.00;;;;;;5037505;28;20558;-65
2023/02/15 02:14:09;;;;;;;34.40;23.60;;;2.90;1.00;;;;;;5036538;28;20553;-65
2023/02/15 02:16:45;;;;;;;37.70;23.57;;;3.00;1.00;;;;;;5036393;28;20550;-65
2023/02/15 02:19:45;;;;;;;31.90;21.93;;;2.90;1.00;;;;;;5037229;28;20926;-65
2023/02/15 02:22:37;;;;;;;33.10;21.90;;;2.80;1.00;;;;;;5022928;28;20477;-65
2023/02/15 02:25:40;;;;;;;32.73;22.60;;;2.60;1.00;;;;;;5036140;28;20497;-65
2023/02/15 02:28:22;;;;;;;34.17;22.33;;;2.70;1.00;;;;;;5036133;28;20546;-65
2023/02/15 02:31:19;;;;;;;32.43;23.67;;;2.70;1.00;;;;;;5036839;28;20989;-65
2023/02/15 02:34:00;;;;;;;35.57;22.90;;;2.60;1.00;;;;;;5036965;28;20569;-65
2023/02/15 02:36:36;;;;;;;43.37;22.20;;;2.50;1.00;;;;;;5035730;28;20479;-66
2023/02/15 02:39:26;;;;;;;32.70;22.80;;;2.30;1.00;;;;;;5035295;28;20469;-65
2023/02/15 02:42:01;;;;;;;35.57;23.53;;;2.40;1.00;;;;;;5036134;28;20791;-65
2023/02/15 02:44:35;;;;;;;31.50;22.27;;;2.40;1.00;;;;;;5036249;28;20553;-65
2023/02/15 02:47:09;;;;;;;38.10;23.70;;;2.40;1.00;;;;;;5036668;28;20561;-65
2023/02/15 02:49:40;;;;;;;30.47;21.53;;;2.40;1.00;;;;;;5035745;28;20590;-65
2023/02/15 02:52:28;;;;;;;35.93;23.17;;;2.50;1.00;;;;;;5035985;28;20562;-66
2023/02/15 02:54:57;;;;;;;34.60;22.70;;;2.40;1.00;;;;;;5035244;28;20495;-65
2023/02/15 02:57:27;;;;;;;31.50;21.47;;;2.30;1.00;;;;;;5036629;28;20559;-65
2023/02/15 02:59:57;;;;;;;33.53;21.90;;;2.30;1.00;;;;;;5035967;28;20550;-65
2023/02/15 03:02:28;;;;;;;31.33;21.33;;;2.10;1.00;;;;;;5036276;28;20474;-65
2023/02/15 03:05:03;;;;;;;38.50;25.23;;;2.10;1.10;;;;;;5036120;28;20467;-65
2023/02/15 03:07:32;;;;;;;35.43;22.93;;;2.00;50.10;;;;;;5036181;28;20919;-65
2023/02/15 03:10:02;;;;;;;37.73;25.73;;;2.00;68.30;;;;;;5035567;28;20585;-66
2023/02/15 03:12:34;;;;;;;34.30;22.83;;;2.00;99.90;;;;;;5035727;28;20475;-65
2023/02/15 03:15:06;;;;;;;34.80;23.93;;;2.00;99.90;;;;;;5035617;28;20502;-65
2023/02/15 03:17:36;;;;;;;34.90;23.70;;;2.00;99.90;;;;;;5036071;28;20526;-65
2023/02/15 03:20:09;;;;;;;37.73;23.87;;;2.00;99.90;;;;;;5035204;28;20922;-66
2023/02/15 03:22:40;;;;;;;40.47;26.10;;;2.00;99.90;;;;;;5036023;28;20791;-65
2023/02/15 03:25:16;;;;;;;33.40;23.63;;;2.00;99.90;;;;;;5035362;28;20463;-65
2023/02/15 03:27:46;;;;;;;34.10;23.50;;;2.00;99.90;;;;;;5035923;28;20593;-65
2023/02/15 03:30:15;;;;;;;38.70;25.03;;;1.90;99.90;;;;;;5035154;28;20497;-66
2023/02/15 03:32:44;;;;;;;35.10;23.47;;;1.80;99.90;;;;;;5035548;28;20468;-66
2023/02/15 03:35:13;;;;;;;32.50;24.00;;;1.70;99.90;;;;;;5035338;28;20563;-66
2023/02/15 03:37:44;;;;;;;38.47;23.80;;;1.70;99.90;;;;;;5035669;28;20546;-66
2023/02/15 03:43:09;;;;;;;35.73;23.30;;;1.70;99.90;;;;;;5035032;28;20926;-66
2023/02/15 03:45:54;;;;;;;35.83;22.67;;;1.80;99.90;;;;;;5035366;28;20837;-65
2023/02/15 03:48:25;;;;;;;36.03;23.57;;;1.70;99.90;;;;;;5036003;28;20476;-65
2023/02/15 03:53:43;;;;;;;33.40;23.93;;;1.60;99.90;;;;;;5034234;28;20473;-66
2023/02/15 03:56:10;;;;;;;35.23;24.03;;;1.60;99.90;;;;;;5034811;28;20550;-66
2023/02/15 04:04:32;;;;;;;35.87;23.37;;;1.50;1.00;;;;;;4973867;28;20449;-65
2023/02/15 04:07:02;;;;;;;37.10;24.27;;;1.70;1.00;;;;;;5023551;28;20565;-65
2023/02/15 04:12:16;;;;;;;36.90;23.90;;;1.60;99.90;;;;;;5025872;28;20446;-65
2023/02/15 04:17:28;;;;;;;35.63;22.80;;;1.60;99.90;;;;;;5035111;28;20473;-65
2023/02/15 04:25:26;;;;;;;35.97;22.23;;;1.50;1.00;;;;;;5034175;28;21684;-65
2023/02/15 04:27:55;;;;;;;39.40;23.10;;;1.50;1.00;;;;;;5020940;28;20546;-65
2023/02/15 04:30:24;;;;;;;35.80;23.63;;;1.50;1.00;;;;;;5034923;28;20499;-65
2023/02/15 04:32:52;;;;;;;34.53;23.23;;;1.50;1.00;;;;;;5035188;28;20954;-65
2023/02/15 04:35:19;;;;;;;41.10;24.97;;;1.50;1.00;;;;;;5034322;28;20557;-65
2023/02/15 04:37:48;;;;;;;37.03;23.60;;;1.60;1.00;;;;;;5034000;28;20467;-66
2023/02/15 04:40:16;;;;;;;33.77;23.13;;;1.60;99.90;;;;;;5033799;28;20550;-65
2023/02/15 04:42:44;;;;;;;35.10;21.40;;;1.50;99.90;;;;;;5034565;28;20565;-65
2023/02/15 04:45:11;;;;;;;33.73;22.90;;;1.50;99.90;;;;;;5034671;28;20463;-65
2023/02/15 04:47:38;;;;;;;37.40;23.87;;;1.40;1.00;;;;;;5034372;28;20536;-65
2023/02/15 04:50:07;;;;;;;35.30;25.50;;;1.40;1.00;;;;;;5034300;28;20486;-65
2023/02/15 04:52:34;;;;;;;41.70;25.10;;;1.40;1.00;;;;;;5014787;28;20480;-65
2023/02/15 04:55:03;;;;;;;36.20;23.10;;;1.30;1.00;;;;;;5014453;28;20586;-66
2023/02/15 04:57:30;;;;;;;36.10;24.40;;;1.30;1.00;;;;;;5015247;28;20443;-66
2023/02/15 04:59:58;;;;;;;38.37;25.10;;;1.40;1.00;;;;;;5026493;28;20460;-65
2023/02/15 05:02:26;;;;;;;39.83;25.03;;;1.40;1.00;;;;;;5046348;27;20471;-65
2023/02/15 05:04:53;;;;;;;40.83;25.47;;;1.40;1.00;;;;;;5033320;27;20464;-65
2023/02/15 05:07:21;;;;;;;38.20;25.93;;;1.50;1.00;;;;;;5037328;27;20912;-65
2023/02/15 05:09:49;;;;;;;40.27;25.13;;;1.50;1.00;;;;;;5034840;28;20491;-66
2023/02/15 05:12:18;;;;;;;38.57;23.63;;;1.40;1.00;;;;;;5041502;27;20835;-65
2023/02/15 05:14:45;;;;;;;34.80;23.17;;;1.30;1.00;;;;;;5035182;28;20453;-65
2023/02/15 05:17:12;;;;;;;35.80;23.17;;;1.30;1.00;;;;;;5041566;27;20908;-65
2023/02/15 05:19:39;;;;;;;40.67;25.90;;;1.30;1.00;;;;;;5046504;27;20458;-65
2023/02/15 05:22:07;;;;;;;36.40;24.13;;;1.40;1.00;;;;;;5032277;28;20467;-65
2023/02/15 05:30:11;;;;;;;35.87;24.80;;;1.30;1.00;;;;;;5024672;28;21103;-66
2023/02/15 05:32:38;;;;;;;39.00;25.53;;;1.50;1.00;;;;;;5031498;28;20485;-65
2023/02/15 05:35:07;;;;;;;36.80;23.53;;;1.30;1.00;;;;;;5033695;28;20463;-65
2023/02/15 05:37:34;;;;;;;37.70;23.40;;;1.30;1.00;;;;;;5020596;28;20474;-65
2023/02/15 05:40:02;;;;;;;38.33;25.43;;;1.30;1.00;;;;;;5034023;28;20554;-66
2023/02/15 05:42:30;;;;;;;37.57;24.57;;;1.30;1.00;;;;;;5052472;28;20475;-65
2023/02/15 05:44:57;;;;;;;34.33;24.07;;;1.20;1.00;;;;;;5036817;28;20463;-66
2023/02/15 05:47:24;;;;;;;37.13;25.93;;;1.20;1.00;;;;;;5035725;28;20557;-66
2023/02/15 05:49:52;;;;;;;38.60;23.57;;;1.20;1.00;;;;;;5032491;28;20476;-66
2023/02/15 05:52:19;;;;;;;34.43;22.63;;;1.20;1.00;;;;;;5032136;28;20473;-65
2023/02/15 05:54:46;;;;;;;36.87;23.47;;;1.20;1.00;;;;;;5031398;28;20500;-66
2023/02/15 05:57:14;;;;;;;35.70;24.50;;;1.10;1.00;;;;;;5032384;28;20491;-65
2023/02/15 05:59:42;;;;;;;38.30;24.50;;;1.20;1.00;;;;;;5033685;28;20474;-65
2023/02/15 06:02:10;;;;;;;40.33;24.00;;;1.20;1.00;;;;;;5032530;28;20494;-65
2023/02/15 06:04:37;;;;;;;39.80;24.43;;;1.20;1.00;;;;;;5031735;28;20459;-65
2023/02/15 06:07:04;;;;;;;36.07;24.13;;;1.30;1.00;;;;;;5032337;28;20531;-65
2023/02/15 06:09:31;;;;;;;39.10;23.07;;;1.10;1.00;;;;;;5033225;28;20548;-65
2023/02/15 06:11:59;;;;;;;33.37;23.53;;;1.10;1.00;;;;;;5048738;28;20563;-65
2023/02/15 06:14:26;;;;;;;39.37;24.63;;;1.20;1.00;;;;;;5088729;27;20943;-65
2023/02/15 06:16:55;;;;;;;36.10;22.60;;;1.30;1.00;;;;;;5031598;28;20476;-65
2023/02/15 06:19:22;;;;;;;36.63;23.37;;;1.30;1.00;;;;;;5035164;28;20569;-65
2023/02/15 06:21:50;;;;;;;35.53;23.43;;;1.10;1.00;;;;;;5035353;28;20459;-65
2023/02/15 06:24:17;;;;;;;44.80;25.57;;;1.10;1.00;;;;;;5035091;28;20459;-65
2023/02/15 06:26:44;;;;;;;35.70;24.30;;;1.20;1.00;;;;;;5034548;28;20479;-65
2023/02/15 06:29:11;;;;;;;36.77;25.50;;;1.40;1.00;;;;;;5035453;28;20441;-65
2023/02/15 06:31:38;;;;;;;33.53;23.50;;;1.40;1.00;;;;;;5031598;28;20749;-65
2023/02/15 06:34:07;;;;;;;35.03;23.23;;;1.40;99.90;;;;;;5032289;28;20466;-65
2023/02/15 06:36:35;;;;;;;34.27;22.17;;;1.40;99.90;;;;;;5034099;28;20466;-65
2023/02/15 06:39:03;;;;;;;36.60;23.30;;;1.40;99.90;;;;;;5030503;28;20526;-65
2023/02/15 06:41:30;;;;;;;35.77;24.90;;;1.60;99.90;;;;;;5032909;28;20462;-65
2023/02/15 06:43:59;;;;;;;34.60;22.70;;;1.60;99.90;;;;;;5034169;28;20464;-65
2023/02/15 06:46:26;;;;;;;32.77;23.07;;;1.60;99.90;;;;;;5032577;28;20479;-65
2023/02/15 06:48:53;;;;;;;38.07;23.70;;;1.50;99.90;;;;;;5033496;28;20570;-65
2023/02/15 06:51:22;;;;;;;34.20;22.47;;;1.40;99.90;;;;;;5032247;28;20505;-65
2023/02/15 06:53:49;;;;;;;33.47;23.13;;;1.40;99.90;;;;;;5034652;28;20491;-65
2023/02/15 06:56:16;;;;;;;37.17;24.70;;;1.40;99.90;;;;;;5032854;28;20565;-65
2023/02/15 06:58:45;;;;;;;37.13;22.10;;;1.40;99.90;;;;;;5035761;28;20463;-65
2023/02/15 07:01:13;;;;;;;32.10;21.60;;;1.30;99.90;;;;;;5025274;28;20797;-65
2023/02/15 07:03:40;;;;;;;31.17;21.40;;;1.30;99.90;;;;;;5020615;28;20577;-65
2023/02/15 07:06:08;;;;;;;35.67;22.67;;;1.40;99.90;;;;;;5022116;28;20479;-65
2023/02/15 07:08:37;;;;;;;33.90;23.40;;;1.50;99.90;;;;;;5017901;28;20479;-65
2023/02/15 07:13:52;;;;;;;34.23;22.23;;;1.60;99.90;;;;;;5023192;28;20604;-65
2023/02/15 07:16:19;;;;;;;33.73;19.93;;;1.70;99.90;;;;;;5016983;28;20476;-65
2023/02/15 07:18:47;;;;;;;31.27;20.70;;;1.90;99.90;;;;;;5020199;28;20476;-65
2023/02/15 07:21:14;;;;;;;34.50;21.50;;;1.90;99.90;;;;;;5038630;28;20553;-65
2023/02/15 07:23:42;;;;;;;31.23;21.50;;;2.00;99.90;;;;;;5035966;28;20877;-65
2023/02/15 07:26:10;;;;;;;31.90;22.10;;;2.10;56.00;;;;;;5035665;28;20473;-65
2023/02/15 07:28:37;;;;;;;32.93;21.80;;;2.10;19.80;;;;;;5036277;28;20524;-65
2023/02/15 07:31:05;;;;;;;31.90;20.60;;;2.20;1.00;;;;;;5035262;28;20483;-65
2023/02/15 07:33:33;;;;;;;28.80;23.00;;;2.10;1.00;;;;;;5034225;28;20482;-65
2023/02/15 07:36:02;;;;;;;32.60;21.63;;;2.20;1.00;;;;;;5021901;28;21210;-64
2023/02/15 07:38:32;;;;;;;29.17;21.63;;;2.30;1.00;;;;;;5035513;28;20467;-64
2023/02/15 07:41:01;;;;;;;28.90;19.87;;;2.40;1.00;;;;;;5034218;28;20460;-64
2023/02/15 07:43:30;;;;;;;28.50;19.70;;;2.50;1.00;;;;;;5039532;28;20469;-64
2023/02/15 07:46:00;;;;;;;26.63;17.70;;;2.60;1.00;;;;;;5035224;28;20462;-64
2023/02/15 07:48:28;;;;;;;25.93;18.23;;;2.60;1.00;;;;;;5035695;28;20510;-64
2023/02/15 07:50:55;;;;;;;29.20;19.30;;;2.70;1.00;;;;;;5034565;28;20497;-64
2023/02/15 07:53:22;;;;;;;30.17;20.23;;;2.70;1.00;;;;;;5017060;28;20926;-64
2023/02/15 07:55:49;;;;;;;32.03;20.07;;;2.80;1.00;;;;;;5034866;28;20441;-64
2023/02/15 07:58:19;;;;;;;30.30;19.60;;;2.80;1.00;;;;;;5038440;28;20459;-64
2023/02/15 08:01:01;;;;;;;31.30;19.97;;;2.90;1.00;;;;;;5035544;28;20472;-64
2023/02/15 08:03:28;;;;;;;25.30;18.83;;;3.00;1.00;;;;;;5034454;28;20503;-64
2023/02/15 08:05:59;;;;;;;32.03;18.90;;;3.20;1.00;;;;;;5034945;28;20562;-65
2023/02/15 08:08:32;;;;;;;32.73;19.30;;;3.40;1.00;;;;;;5034114;28;20460;-65
2023/02/15 08:14:03;;;;;;;29.00;18.20;;;3.90;1.00;;;;;;5011912;28;20449;-64
2023/02/15 08:16:33;;;;;;;25.23;18.07;;;4.30;1.00;;;;;;5022575;27;20468;-64
2023/02/15 08:19:02;;;;;;;25.27;17.97;;;4.50;1.00;;;;;;5035487;28;20462;-64
2023/02/15 08:21:30;;;;;;;24.90;18.10;;;4.80;1.00;;;;;;5034839;28;20429;-64
2023/02/15 08:23:59;;;;;;;27.50;17.53;;;5.10;1.00;;;;;;5033469;28;20459;-63
2023/02/15 08:26:30;;;;;;;21.93;16.30;;;5.30;1.00;;;;;;5032549;28;20894;-63
2023/02/15 08:28:59;;;;;;;24.33;17.60;;;5.60;1.00;;;;;;5033380;28;20568;-64
2023/02/15 08:31:28;;;;;;;24.93;17.17;;;5.80;1.00;;;;;;5033251;28;20496;-63
2023/02/15 08:33:57;;;;;;;25.00;16.33;;;6.10;1.00;;;;;;5032159;28;20902;-64
2023/02/15 08:36:25;;;;;;;25.47;16.43;;;6.50;1.00;;;;;;5023011;28;20464;-63
2023/02/15 08:38:52;;;;;;;22.60;16.10;;;6.80;99.90;;;;;;5027575;28;20935;-63
2023/02/15 08:41:21;;;;;;;20.87;15.50;;;7.00;99.90;;;;;;5033100;28;20459;-63
2023/02/15 08:43:51;;;;;;;23.20;15.93;;;7.10;99.90;;;;;;5033360;28;20546;-63
2023/02/15 08:46:20;;;;;;;21.07;15.70;;;7.20;99.90;;;;;;5031693;28;20918;-63
2023/02/15 08:48:49;;;;;;;21.63;15.30;;;7.20;99.90;;;;;;5032856;28;20462;-63
2023/02/15 08:51:18;;;;;;;22.47;16.17;;;7.40;99.90;;;;;;5034036;28;20509;-62
2023/02/15 08:53:48;;;;;;;22.70;15.50;;;7.50;99.90;;;;;;5034442;28;20487;-63
2023/02/15 08:56:16;;;;;;;17.83;14.37;;;7.80;99.90;;;;;;5031127;28;20972;-63
2023/02/15 08:58:44;;;;;;;19.70;15.93;;;8.00;99.90;;;;;;5033074;28;20469;-63
2023/02/15 09:01:12;;;;;;;21.57;14.80;;;8.20;99.90;;;;;;5033621;28;20459;-63
2023/02/15 09:03:39;;;;;;;18.53;13.27;;;8.40;99.90;;;;;;5034251;28;20879;-63
2023/02/15 09:06:08;;;;;;;23.60;15.87;;;8.40;99.90;;;;;;5034289;28;20459;-63
2023/02/15 09:08:35;;;;;;;20.63;15.37;;;7.90;99.90;;;;;;5032879;28;20462;-63
2023/02/15 09:11:10;;;;;;;21.00;14.53;;;7.90;99.90;;;;;;5034104;28;20574;-63
2023/02/15 09:13:38;;;;;;;20.77;14.63;;;8.20;99.90;;;;;;5030233;28;20841;-63
2023/02/15 09:16:07;;;;;;;19.77;14.67;;;8.90;99.90;;;;;;5032770;28;20471;-62
2023/02/15 09:18:37;;;;;;;22.83;14.90;;;9.30;99.90;;;;;;5033480;28;20463;-62
2023/02/15 09:21:13;;;;;;;19.73;14.47;;;9.70;99.90;;;;;;5034922;28;20735;-62
2023/02/15 09:23:40;;;;;;;17.13;14.07;;;10.00;99.90;;;;;;5014362;28;20533;-62
2023/02/15 09:26:09;;;;;;;18.53;13.30;;;10.20;99.90;;;;;;5014239;28;20468;-62
2023/02/15 09:28:36;;;;;;;19.93;13.93;;;10.30;99.90;;;;;;5013184;28;20470;-62
2023/02/15 09:31:11;;;;;;;21.07;14.43;;;10.50;99.90;;;;;;5014124;28;20470;-61
2023/02/15 09:33:40;;;;;;;18.53;13.63;;;10.70;99.90;;;;;;5030629;28;20530;-62
2023/02/15 09:36:17;;;;;;;18.10;12.63;;;10.80;99.90;;;;;;5033869;28;20463;-62
2023/02/15 09:38:45;;;;;;;16.33;12.50;;;10.90;99.90;;;;;;5034146;28;20558;-61
2023/02/15 09:41:38;;;;;;;17.93;13.97;;;11.00;99.90;;;;;;5034108;28;20463;-62
2023/02/15 09:44:18;;;;;;;18.93;13.20;;;11.00;99.90;;;;;;5023218;28;20463;-61
2023/02/15 09:47:08;;;;;;;20.67;13.43;;;11.10;99.90;;;;;;5034135;28;20461;-62
2023/02/15 09:49:45;;;;;;;16.70;13.10;;;11.20;99.90;;;;;;5034061;28;20459;-62
2023/02/15 09:52:34;;;;;;;16.97;13.60;;;11.30;99.90;;;;;;5037002;28;21032;-61
2023/02/15 09:55:20;;;;;;;20.57;14.37;;;11.30;99.90;;;;;;5020895;28;20556;-62
2023/02/15 09:57:55;;;;;;;15.90;13.43;;;11.30;99.90;;;;;;5037286;28;20463;-62
2023/02/15 10:00:30;;;;;;;20.03;14.50;;;11.60;99.90;;;;;;5037352;28;20860;-62
2023/02/15 10:03:12;;;;;;;19.03;13.50;;;11.80;99.90;;;;;;5036761;28;20492;-62
2023/02/15 10:05:50;;;;;;;16.17;13.67;;;11.90;99.90;;;;;;5023816;28;20478;-62
2023/02/15 10:08:45;;;;;;;16.73;12.60;;;11.90;99.90;;;;;;5032577;28;20543;-62
2023/02/15 10:14:19;;;;;;;20.67;14.77;;;12.50;99.90;;;;;;5034247;28;20446;-62
2023/02/15 10:16:56;;;;;;;17.70;14.23;;;12.60;99.90;;;;;;5035786;28;20485;-62
2023/02/15 10:19:32;;;;;;;18.73;13.60;;;12.70;99.90;;;;;;5035243;28;20462;-62
2023/02/15 10:22:08;;;;;;;15.00;11.73;;;12.80;99.90;;;;;;5035051;28;20917;-60
2023/02/15 10:25:11;;;;;;;16.50;13.83;;;13.10;99.90;;;;;;5036455;28;20470;-62
2023/02/15 10:27:45;;;;;;;15.07;13.00;;;13.40;99.90;;;;;;5024076;28;20472;-60
2023/02/15 10:30:14;;;;;;;16.63;13.50;;;13.50;99.90;;;;;;5037275;28;20772;-62
2023/02/15 10:32:49;;;;;;;13.73;12.10;;;13.60;99.90;;;;;;5036395;28;20469;-63
2023/02/15 10:35:23;;;;;;;18.00;12.33;;;13.70;99.90;;;;;;5036170;28;20459;-62
2023/02/15 10:38:15;;;;;;;17.40;13.03;;;13.80;99.90;;;;;;5036762;28;20562;-63
2023/02/15 10:40:52;;;;;;;21.37;12.30;;;13.70;99.90;;;;;;5036575;28;20887;-63
2023/02/15 10:43:38;;;;;;;17.27;12.53;;;13.80;99.90;;;;;;5036441;28;20831;-63
2023/02/15 10:46:16;;;;;;;15.37;12.00;;;14.00;99.90;;;;;;5039760;27;20459;-62
2023/02/15 10:49:06;;;;;;;12.37;11.00;;;14.10;99.90;;;;;;5036403;28;20919;-63
2023/02/15 10:51:48;;;;;;;16.50;12.73;;;14.40;99.90;;;;;;5034742;28;20927;-57
2023/02/15 10:54:27;;;;;;;16.27;13.63;;;14.60;99.90;;;;;;5034638;28;20495;-61
2023/02/15 10:57:04;;;;;;;15.03;12.20;;;14.30;99.90;;;;;;5033939;28;20463;-62
2023/02/15 10:59:48;;;;;;;17.40;11.77;;;14.10;99.90;;;;;;5035115;28;20864;-62
2023/02/15 11:02:24;;;;;;;13.93;11.90;;;14.20;99.90;;;;;;5034189;28;20553;-61
2023/02/15 11:05:02;;;;;;;16.00;11.93;;;14.10;99.90;;;;;;5035332;28;20752;-63
2023/02/15 11:07:35;;;;;;;14.10;12.07;;;14.30;99.90;;;;;;5035761;28;20463;-62
2023/02/15 11:10:13;;;;;;;17.53;12.63;;;14.30;99.90;;;;;;5039592;27;20470;-63
2023/02/15 11:12:45;;;;;;;17.70;13.30;;;14.20;99.90;;;;;;5035780;28;20919;-63
2023/02/15 11:15:20;;;;;;;18.30;14.93;;;14.20;99.90;;;;;;5036130;28;20769;-63
2023/02/15 11:17:54;;;;;;;15.17;12.70;;;14.50;99.90;;;;;;5035491;28;20463;-60
2023/02/15 11:20:26;;;;;;;14.20;11.80;;;14.50;99.90;;;;;;5036155;28;20516;-62
2023/02/15 11:22:54;;;;;;;17.60;14.00;;;14.60;99.90;;;;;;5035834;28;20767;-61
2023/02/15 11:25:26;;;;;;;14.80;13.07;;;14.50;99.90;;;;;;5035851;28;20559;-61
2023/02/15 11:27:56;;;;;;;14.03;12.53;;;14.60;99.90;;;;;;5034900;28;20467;-62
2023/02/15 11:30:26;;;;;;;18.50;12.93;;;14.70;99.90;;;;;;5036424;28;20532;-63
2023/02/15 11:32:56;;;;;;;16.10;14.00;;;14.90;99.90;;;;;;5034893;28;20499;-63
2023/02/15 11:35:30;;;;;;;16.57;13.20;;;15.20;99.90;;;;;;5035489;28;20551;-62
2023/02/15 11:38:07;;;;;;;16.20;13.03;;;15.40;99.90;;;;;;5034396;28;20466;-63
2023/02/15 11:40:36;;;;;;;16.10;13.53;;;15.30;99.90;;;;;;5034378;28;20466;-62
2023/02/15 11:43:12;;;;;;;16.30;12.73;;;15.40;99.90;;;;;;5034456;28;20512;-59
2023/02/15 11:45:42;;;;;;;17.77;12.87;;;15.40;99.90;;;;;;5019110;28;20928;-62
2023/02/15 11:48:12;;;;;;;20.93;14.13;;;15.50;99.90;;;;;;5018042;28;20471;-64
2023/02/15 11:50:40;;;;;;;18.87;13.20;;;15.50;99.90;;;;;;5033512;28;20463;-63
2023/02/15 11:53:13;;;;;;;19.03;13.53;;;15.60;99.90;;;;;;5033485;28;20495;-62
2023/02/15 11:55:40;;;;;;;15.67;13.10;;;15.70;99.90;;;;;;5034606;28;20919;-62
2023/02/15 11:58:15;;;;;;;16.90;12.87;;;15.60;99.90;;;;;;5034222;28;20463;-63
2023/02/15 12:00:45;;;;;;;16.87;13.70;;;15.50;99.90;;;;;;5033138;28;20473;-63
2023/02/15 12:03:18;;;;;;;22.30;12.57;;;15.50;99.90;;;;;;5034094;28;20542;-62
2023/02/15 12:05:48;;;;;;;16.43;12.60;;;15.60;99.90;;;;;;5031446;28;20483;-62
2023/02/15 12:08:20;;;;;;;15.10;12.80;;;15.40;99.90;;;;;;5026539;28;20951;-63
2023/02/15 12:10:58;;;;;;;18.40;12.87;;;15.50;99.90;;;;;;5031948;28;20898;-63
2023/02/15 12:13:27;;;;;;;16.47;13.00;;;15.70;99.90;;;;;;5015787;28;20503;-62
2023/02/15 12:15:56;;;;;;;14.13;11.73;;;15.50;99.90;;;;;;5016299;28;20511;-63
2023/02/15 12:18:36;;;;;;;17.87;13.87;;;15.70;99.90;;;;;;5025607;28;20470;-63
2023/02/15 12:21:07;;;;;;;15.73;13.10;;;16.10;99.90;;;;;;5032226;28;20465;-62
2023/02/15 12:23:40;;;;;;;15.97;12.70;;;16.30;99.90;;;;;;5031841;28;20456;-62
2023/02/15 12:26:07;;;;;;;13.00;11.07;;;16.10;99.90;;;;;;5032689;28;20461;-63
2023/02/15 12:28:39;;;;;;;16.10;11.70;;;16.10;99.90;;;;;;5032761;28;20463;-62
2023/02/15 12:31:11;;;;;;;13.33;11.03;;;16.40;99.90;;;;;;5033388;28;20554;-63
2023/02/15 12:33:45;;;;;;;16.07;11.90;;;16.50;99.90;;;;;;5033831;28;20491;-63
2023/02/15 12:36:18;;;;;;;14.13;11.73;;;16.50;99.90;;;;;;5031841;28;20468;-62
2023/02/15 12:39:04;;;;;;;17.33;12.80;;;16.60;99.90;;;;;;5033400;28;20487;-63
2023/02/15 12:41:31;;;;;;;13.97;12.40;;;16.70;99.90;;;;;;5033335;28;20463;-63
2023/02/15 12:44:08;;;;;;;14.80;12.27;;;16.40;99.90;;;;;;5035088;28;20463;-62
2023/02/15 12:46:35;;;;;;;18.90;13.53;;;16.60;99.90;;;;;;5032999;28;20581;-62
2023/02/15 12:49:20;;;;;;;17.80;13.30;;;16.70;99.90;;;;;;5078722;27;20476;-62
2023/02/15 12:51:50;;;;;;;18.80;13.60;;;16.80;99.90;;;;;;5031926;28;20550;-63
2023/02/15 12:54:18;;;;;;;16.53;12.57;;;16.70;99.90;;;;;;5030710;28;20589;-60
2023/02/15 12:56:46;;;;;;;24.80;15.80;;;16.60;99.90;;;;;;5030610;28;20467;-63
2023/02/15 12:59:16;;;;;;;19.47;13.90;;;16.60;99.90;;;;;;5030732;28;20493;-62
2023/02/15 13:01:45;;;;;;;18.00;13.77;;;16.90;99.90;;;;;;5012238;28;20467;-61
2023/02/15 13:04:22;;;;;;;19.50;14.47;;;17.00;99.90;;;;;;5019771;28;20463;-63
2023/02/15 13:06:52;;;;;;;15.97;12.50;;;17.20;99.90;;;;;;5034268;28;20462;-63
2023/02/15 13:09:25;;;;;;;16.87;11.57;;;17.20;99.90;;;;;;5030600;28;20486;-63
2023/02/15 13:11:53;;;;;;;20.70;16.97;;;17.00;99.90;;;;;;5031390;28;20521;-63
2023/02/15 13:14:28;;;;;;;13.13;11.17;;;17.10;99.90;;;;;;5033634;28;20462;-63
2023/02/15 13:16:59;;;;;;;14.87;12.80;;;17.10;99.90;;;;;;5033936;28;20496;-63
2023/02/15 13:19:34;;;;;;;13.97;11.87;;;17.00;99.90;;;;;;5034761;28;20458;-63
2023/02/15 13:22:06;;;;;;;15.63;11.27;;;16.70;99.90;;;;;;5033549;28;20467;-63
2023/02/15 13:24:37;;;;;;;15.77;12.10;;;16.80;99.90;;;;;;5037136;28;20519;-63
2023/02/15 13:27:05;;;;;;;14.50;10.67;;;16.80;99.90;;;;;;5032073;28;20466;-63
2023/02/15 13:29:38;;;;;;;13.30;10.67;;;16.80;99.90;;;;;;5031329;28;20455;-63
2023/02/15 13:32:12;;;;;;;13.23;10.37;;;16.70;99.90;;;;;;5031952;28;20502;-63
2023/02/15 13:34:40;;;;;;;12.03;10.73;;;16.80;99.90;;;;;;5032779;28;20459;-63